Time;durP1;ratioP1;P1;durP2;ratioP2;P2;SDS_P1;SDS_P2;PMS_P1;PMS_P2;Temp;Humidity;BMP_temperature;BMP_pressure;BME280_temperature;BME280_humidity;BME280_pressure;Samples;Min_cycle;Max_cycle;Signal;HPM_P1;HPM_P2
2022/10/17 00:00:02;;;;;;;11.77;4.75;;;17.20;84.10;;;;;;4993917;28;20023;-78
2022/10/17 00:02:28;;;;;;;10.45;4.38;;;17.20;84.20;;;;;;4993435;28;20056;-79
2022/10/17 00:05:01;;;;;;;9.23;5.15;;;17.20;84.20;;;;;;4998529;28;20065;-78
2022/10/17 00:07:26;;;;;;;6.97;4.68;;;17.10;84.50;;;;;;4998522;28;20030;-79
2022/10/17 00:09:52;;;;;;;12.93;5.35;;;17.10;84.60;;;;;;4998631;28;20113;-79
2022/10/17 00:12:17;;;;;;;15.95;5.55;;;17.10;84.60;;;;;;4997871;28;20112;-78
2022/10/17 00:14:43;;;;;;;7.32;4.18;;;17.10;84.50;;;;;;4998228;28;20476;-79
2022/10/17 00:17:09;;;;;;;8.38;4.55;;;17.10;84.60;;;;;;4997891;28;20550;-78
2022/10/17 00:19:34;;;;;;;10.32;5.65;;;17.00;84.70;;;;;;4993502;28;20105;-79
2022/10/17 00:22:00;;;;;;;10.80;4.95;;;17.10;84.70;;;;;;4982127;28;20026;-78
2022/10/17 00:24:25;;;;;;;7.00;4.70;;;17.10;84.60;;;;;;5006303;28;20027;-78
2022/10/17 00:26:51;;;;;;;9.30;5.45;;;17.00;84.60;;;;;;4998153;28;20579;-79
2022/10/17 00:29:17;;;;;;;11.77;5.72;;;17.10;84.60;;;;;;5013195;28;20026;-79
2022/10/17 00:31:42;;;;;;;9.90;5.00;;;17.20;84.60;;;;;;5012902;28;20034;-78
2022/10/17 00:34:08;;;;;;;7.95;4.45;;;17.20;84.50;;;;;;4997517;28;20045;-79
2022/10/17 00:36:33;;;;;;;14.68;5.80;;;17.20;84.40;;;;;;5012892;28;20030;-79
2022/10/17 00:38:59;;;;;;;12.45;5.22;;;17.20;84.30;;;;;;4997569;28;20144;-78
2022/10/17 00:41:31;;;;;;;6.55;4.40;;;17.20;84.30;;;;;;4997302;28;20036;-78
2022/10/17 00:44:01;;;;;;;8.10;5.07;;;17.20;84.30;;;;;;4997931;28;20027;-78
2022/10/17 00:46:30;;;;;;;10.02;4.95;;;17.30;84.20;;;;;;5012130;28;20027;-79
2022/10/17 00:48:59;;;;;;;10.07;4.87;;;17.30;84.20;;;;;;4997679;28;20088;-79
2022/10/17 00:51:39;;;;;;;10.70;5.25;;;17.30;84.10;;;;;;4996350;28;20030;-79
2022/10/17 00:54:06;;;;;;;8.07;4.28;;;17.30;84.10;;;;;;4996687;28;20045;-78
2022/10/17 00:56:32;;;;;;;10.10;4.60;;;17.30;84.10;;;;;;4996143;28;20573;-78
2022/10/17 00:58:58;;;;;;;6.30;3.95;;;17.30;84.20;;;;;;4997724;28;20030;-79
2022/10/17 01:01:24;;;;;;;8.57;4.80;;;17.30;84.10;;;;;;4997432;28;20076;-78
2022/10/17 01:03:50;;;;;;;11.18;5.30;;;17.30;84.10;;;;;;5012230;28;20037;-79
2022/10/17 01:06:16;;;;;;;9.32;4.32;;;17.30;84.10;;;;;;4997433;28;20031;-79
2022/10/17 01:08:41;;;;;;;9.18;5.30;;;17.30;84.20;;;;;;4992421;28;20556;-79
2022/10/17 01:11:30;;;;;;;11.18;5.03;;;17.30;84.00;;;;;;4977659;28;20038;-79
2022/10/17 01:14:25;;;;;;;10.82;4.35;;;17.30;84.00;;;;;;4977659;28;20043;-79
2022/10/17 01:17:22;;;;;;;14.45;4.70;;;17.30;84.00;;;;;;4992302;28;20089;-78
2022/10/17 01:19:53;;;;;;;6.22;4.32;;;17.40;83.90;;;;;;4977722;28;20037;-78
2022/10/17 01:22:54;;;;;;;8.98;4.78;;;17.40;83.90;;;;;;4987306;28;20029;-79
2022/10/17 01:25:51;;;;;;;10.05;4.30;;;17.40;83.80;;;;;;5002913;28;20133;-79
2022/10/17 01:28:28;;;;;;;7.80;4.00;;;17.30;83.90;;;;;;4996569;28;20045;-78
2022/10/17 01:31:07;;;;;;;9.30;4.70;;;17.30;83.90;;;;;;5011197;28;20553;-79
2022/10/17 01:33:47;;;;;;;8.18;4.93;;;17.20;84.00;;;;;;5011726;28;20029;-79
2022/10/17 01:36:31;;;;;;;11.02;4.57;;;17.20;84.00;;;;;;5011385;28;20033;-79
2022/10/17 01:39:06;;;;;;;10.70;4.65;;;17.20;84.00;;;;;;4977456;28;20034;-79
2022/10/17 01:41:53;;;;;;;9.60;4.63;;;17.20;84.10;;;;;;4980488;28;20100;-78
2022/10/17 01:44:34;;;;;;;13.10;5.18;;;17.20;84.00;;;;;;5011655;28;20031;-79
2022/10/17 01:47:05;;;;;;;9.93;4.82;;;17.20;84.00;;;;;;5011523;28;20121;-79
2022/10/17 01:49:33;;;;;;;7.07;4.90;;;17.20;84.00;;;;;;4996133;28;20201;-79
2022/10/17 01:52:08;;;;;;;12.10;5.30;;;17.20;84.00;;;;;;4995951;28;20109;-79
2022/10/17 01:54:46;;;;;;;7.20;4.90;;;17.20;84.00;;;;;;5011581;28;20037;-79
2022/10/17 01:57:22;;;;;;;5.95;4.30;;;17.20;84.00;;;;;;5011590;28;20030;-78
2022/10/17 01:59:51;;;;;;;8.20;4.65;;;17.20;83.90;;;;;;4995026;28;20503;-79
2022/10/17 02:02:17;;;;;;;6.50;4.45;;;17.20;83.90;;;;;;5011364;28;20511;-79
2022/10/17 02:04:45;;;;;;;11.73;4.97;;;17.20;83.90;;;;;;4978232;28;20031;-79
2022/10/17 02:07:12;;;;;;;10.63;4.53;;;17.20;84.00;;;;;;4977058;28;20034;-78
2022/10/17 02:09:39;;;;;;;9.32;4.38;;;17.20;84.10;;;;;;4975072;28;20100;-79
2022/10/17 02:12:23;;;;;;;8.40;5.28;;;17.20;84.00;;;;;;4975323;28;20034;-78
2022/10/17 02:15:04;;;;;;;10.00;4.55;;;17.20;84.00;;;;;;4976705;28;20117;-78
2022/10/17 02:18:10;;;;;;;8.77;4.80;;;17.20;84.10;;;;;;4976892;28;20074;-78
2022/10/17 02:20:48;;;;;;;8.52;4.38;;;17.20;84.10;;;;;;4977132;28;20421;-78
2022/10/17 02:23:32;;;;;;;9.90;4.38;;;17.20;84.30;;;;;;5001141;28;20105;-78
2022/10/17 02:26:16;;;;;;;7.05;3.80;;;17.20;84.50;;;;;;5015575;28;20034;-78
2022/10/17 02:28:51;;;;;;;10.50;4.43;;;17.30;84.60;;;;;;5008232;28;20030;-79
2022/10/17 02:31:21;;;;;;;6.22;3.83;;;17.30;84.50;;;;;;4976719;28;20106;-78
2022/10/17 02:33:54;;;;;;;8.27;3.95;;;17.30;84.60;;;;;;4976977;28;20030;-79
2022/10/17 02:36:28;;;;;;;6.65;3.75;;;17.30;84.50;;;;;;4988262;28;20511;-78
2022/10/17 02:38:55;;;;;;;8.50;4.40;;;17.30;84.50;;;;;;4995896;28;20019;-78
2022/10/17 02:41:23;;;;;;;6.47;3.47;;;17.30;84.50;;;;;;4996031;28;20026;-79
2022/10/17 02:43:50;;;;;;;7.82;3.53;;;17.30;84.50;;;;;;4995342;28;20023;-79
2022/10/17 02:46:22;;;;;;;8.70;4.25;;;17.40;84.30;;;;;;5011234;28;20026;-78
2022/10/17 02:48:55;;;;;;;10.35;4.13;;;17.40;84.50;;;;;;5014955;28;20030;-79
2022/10/17 02:51:42;;;;;;;7.93;3.80;;;17.40;84.60;;;;;;4999939;28;20441;-79
2022/10/17 02:54:20;;;;;;;11.98;3.72;;;17.40;84.60;;;;;;4999550;28;20042;-78
2022/10/17 02:57:09;;;;;;;7.97;3.67;;;17.40;84.60;;;;;;5014999;28;20026;-79
2022/10/17 02:59:36;;;;;;;8.68;4.00;;;17.40;84.70;;;;;;5014691;28;20026;-79
2022/10/17 03:02:04;;;;;;;10.52;3.85;;;17.50;84.60;;;;;;4987735;28;20485;-78
2022/10/17 03:04:30;;;;;;;8.60;3.08;;;17.50;84.60;;;;;;4979917;28;20038;-79
2022/10/17 03:06:55;;;;;;;8.75;3.80;;;17.50;84.60;;;;;;4980302;28;20503;-78
2022/10/17 03:09:21;;;;;;;7.68;4.03;;;17.40;84.60;;;;;;4978610;28;20042;-79
2022/10/17 03:11:46;;;;;;;9.43;3.67;;;17.50;84.70;;;;;;4980092;28;20023;-79
2022/10/17 03:14:12;;;;;;;5.90;3.60;;;17.50;84.70;;;;;;4979894;28;20051;-79
2022/10/17 03:16:38;;;;;;;10.63;3.90;;;17.50;84.90;;;;;;4979820;28;20035;-79
2022/10/17 03:19:04;;;;;;;12.95;4.13;;;17.50;84.80;;;;;;4990699;28;20041;-78
2022/10/17 03:21:29;;;;;;;5.55;3.28;;;17.50;85.10;;;;;;4998849;28;20115;-79
2022/10/17 03:23:57;;;;;;;7.10;3.45;;;17.50;85.10;;;;;;5017382;28;20034;-78
2022/10/17 03:26:23;;;;;;;10.43;3.83;;;17.50;85.00;;;;;;5007673;28;20037;-79
2022/10/17 03:28:49;;;;;;;11.90;3.53;;;17.50;85.10;;;;;;4998004;28;20034;-79
2022/10/17 03:31:16;;;;;;;10.00;4.28;;;17.50;84.90;;;;;;4997701;28;20044;-79
2022/10/17 03:33:42;;;;;;;6.82;3.80;;;17.50;85.00;;;;;;4999100;28;20088;-79
2022/10/17 03:36:10;;;;;;;9.50;4.03;;;17.50;85.10;;;;;;4998515;28;20086;-78
2022/10/17 03:38:36;;;;;;;9.88;4.15;;;17.50;85.20;;;;;;4999015;28;20030;-78
2022/10/17 03:41:05;;;;;;;7.53;3.30;;;17.60;85.10;;;;;;4998037;28;20022;-79
2022/10/17 03:43:31;;;;;;;5.25;3.47;;;17.50;85.10;;;;;;4997840;28;20027;-79
2022/10/17 03:45:57;;;;;;;5.65;3.35;;;17.50;85.20;;;;;;5013629;28;20389;-79
2022/10/17 03:48:24;;;;;;;7.18;4.25;;;17.50;85.30;;;;;;4998840;28;20031;-79
2022/10/17 03:50:49;;;;;;;7.40;4.10;;;17.50;85.40;;;;;;4998757;28;20049;-79
2022/10/17 03:53:15;;;;;;;13.63;4.10;;;17.50;85.50;;;;;;4998324;28;20042;-78
2022/10/17 03:55:41;;;;;;;6.50;3.30;;;17.50;85.40;;;;;;4998649;28;20089;-79
2022/10/17 03:58:06;;;;;;;10.40;4.50;;;17.50;85.40;;;;;;4997805;28;20106;-79
2022/10/17 04:00:34;;;;;;;7.47;3.55;;;17.50;85.40;;;;;;4998067;28;20029;-79
2022/10/17 04:03:00;;;;;;;6.15;3.05;;;17.50;85.40;;;;;;4997871;28;20027;-79
2022/10/17 04:05:26;;;;;;;7.38;3.10;;;17.50;85.60;;;;;;4998543;28;20111;-79
2022/10/17 04:07:51;;;;;;;8.95;3.63;;;17.50;85.50;;;;;;5013046;28;20034;-79
2022/10/17 04:10:17;;;;;;;6.63;2.97;;;17.60;85.60;;;;;;5013480;28;20104;-78
2022/10/17 04:12:43;;;;;;;5.65;2.78;;;17.50;85.50;;;;;;4997963;28;20390;-79
2022/10/17 04:15:08;;;;;;;8.38;2.80;;;17.50;85.40;;;;;;4998216;28;20137;-79
2022/10/17 04:17:34;;;;;;;10.68;3.08;;;17.50;85.50;;;;;;4998278;28;20151;-79
2022/10/17 04:20:00;;;;;;;5.85;3.17;;;17.50;85.40;;;;;;4981525;28;20105;-78
2022/10/17 04:22:26;;;;;;;7.85;3.03;;;17.60;85.40;;;;;;4988810;28;20925;-79
2022/10/17 04:24:51;;;;;;;9.10;2.95;;;17.60;85.40;;;;;;5009253;28;20097;-78
2022/10/17 04:27:17;;;;;;;6.40;2.78;;;17.60;85.30;;;;;;4996698;28;20030;-79
2022/10/17 04:29:43;;;;;;;7.70;2.92;;;17.60;85.20;;;;;;4998131;28;20429;-79
2022/10/17 04:32:08;;;;;;;9.90;3.10;;;17.50;85.30;;;;;;4997722;28;20041;-75
2022/10/17 04:34:34;;;;;;;5.90;2.63;;;17.50;85.30;;;;;;5015061;28;20026;-77
2022/10/17 04:36:59;;;;;;;8.15;2.80;;;17.60;85.30;;;;;;4996705;28;20027;-77
2022/10/17 04:39:25;;;;;;;9.80;3.53;;;17.60;85.20;;;;;;4997346;28;20022;-78
2022/10/17 04:41:51;;;;;;;5.57;2.33;;;17.60;85.20;;;;;;4995916;28;20756;-78
2022/10/17 04:44:17;;;;;;;8.65;3.38;;;17.60;85.10;;;;;;4997665;28;20505;-78
2022/10/17 04:46:42;;;;;;;6.20;3.00;;;17.60;85.00;;;;;;4997584;28;20038;-78
2022/10/17 04:49:08;;;;;;;7.95;2.53;;;17.70;84.80;;;;;;5011332;28;20102;-77
2022/10/17 04:51:34;;;;;;;8.10;2.45;;;17.60;84.60;;;;;;4988661;28;20035;-78
2022/10/17 04:54:00;;;;;;;6.50;2.40;;;17.60;84.60;;;;;;4993221;28;20038;-78
2022/10/17 04:56:25;;;;;;;4.35;2.08;;;17.60;84.60;;;;;;4976235;28;20055;-80
2022/10/17 04:58:51;;;;;;;7.45;2.42;;;17.60;84.60;;;;;;4975049;28;20031;-76
2022/10/17 05:01:20;;;;;;;8.80;2.63;;;17.60;84.50;;;;;;4977200;28;20019;-75
2022/10/17 05:03:46;;;;;;;7.03;2.72;;;17.60;84.50;;;;;;4990940;28;20022;-78
2022/10/17 05:06:13;;;;;;;7.93;3.08;;;17.60;84.50;;;;;;4995003;28;20034;-77
2022/10/17 05:08:39;;;;;;;6.57;2.28;;;17.60;84.40;;;;;;4996116;28;20042;-77
2022/10/17 05:11:15;;;;;;;4.28;1.85;;;17.60;84.30;;;;;;4997357;28;20026;-78
2022/10/17 05:13:40;;;;;;;5.40;2.30;;;17.50;84.30;;;;;;4989336;28;20102;-76
2022/10/17 05:16:06;;;;;;;5.75;2.10;;;17.50;84.30;;;;;;4993101;28;20042;-77
2022/10/17 05:18:31;;;;;;;6.82;2.00;;;17.60;84.30;;;;;;4977921;28;20058;-76
2022/10/17 05:20:57;;;;;;;8.73;2.47;;;17.60;84.30;;;;;;5006678;28;20030;-76
2022/10/17 05:23:23;;;;;;;6.13;2.53;;;17.50;84.30;;;;;;5010746;28;20097;-75
2022/10/17 05:25:53;;;;;;;3.40;1.77;;;17.50;84.20;;;;;;5015887;28;20046;-76
2022/10/17 05:28:20;;;;;;;6.70;2.40;;;17.50;84.30;;;;;;4995431;28;20496;-75
2022/10/17 05:30:45;;;;;;;5.63;2.10;;;17.50;84.40;;;;;;4995292;28;20124;-76
2022/10/17 05:33:11;;;;;;;7.53;2.35;;;17.50;84.30;;;;;;4996971;28;20065;-76
2022/10/17 05:35:36;;;;;;;6.38;2.53;;;17.50;84.40;;;;;;4996864;28;20065;-75
2022/10/17 05:38:02;;;;;;;6.65;2.08;;;17.50;84.30;;;;;;4988804;28;20023;-77
2022/10/17 05:40:28;;;;;;;6.18;2.50;;;17.50;84.40;;;;;;4984217;28;20405;-75
2022/10/17 05:42:53;;;;;;;6.07;2.38;;;17.50;84.40;;;;;;4995969;28;20065;-76
2022/10/17 05:45:19;;;;;;;7.50;2.47;;;17.50;84.50;;;;;;4997135;28;20038;-76
2022/10/17 05:47:44;;;;;;;3.88;2.40;;;17.50;84.50;;;;;;4996560;28;20085;-76
2022/10/17 05:50:11;;;;;;;7.65;2.38;;;17.50;84.50;;;;;;4996001;28;20370;-76
2022/10/17 05:52:37;;;;;;;4.65;1.75;;;17.40;84.50;;;;;;4992670;28;20051;-76
2022/10/17 05:55:04;;;;;;;4.10;2.38;;;17.50;84.50;;;;;;4994901;28;20034;-76
2022/10/17 05:57:30;;;;;;;4.88;2.15;;;17.40;84.60;;;;;;4994998;28;20046;-76
2022/10/17 05:59:56;;;;;;;4.63;2.53;;;17.40;84.60;;;;;;4996512;28;20015;-76
2022/10/17 06:02:21;;;;;;;4.53;3.00;;;17.40;84.70;;;;;;4992377;28;20513;-82
2022/10/17 06:04:48;;;;;;;6.53;2.70;;;17.40;84.70;;;;;;4987953;28;20117;-81
2022/10/17 06:07:14;;;;;;;6.88;2.95;;;17.40;84.70;;;;;;4983465;28;20108;-81
2022/10/17 06:09:40;;;;;;;5.10;2.85;;;17.40;84.80;;;;;;4991151;28;20133;-81
2022/10/17 06:12:06;;;;;;;5.28;2.42;;;17.40;84.70;;;;;;4995509;28;20101;-81
2022/10/17 06:14:32;;;;;;;7.47;2.38;;;17.40;84.70;;;;;;4995896;28;20042;-81
2022/10/17 06:16:58;;;;;;;3.97;2.55;;;17.40;84.80;;;;;;4996067;28;20110;-81
2022/10/17 06:19:23;;;;;;;8.88;3.38;;;17.40;84.70;;;;;;4978939;28;20538;-81
2022/10/17 06:21:49;;;;;;;7.70;3.28;;;17.40;84.60;;;;;;4978604;28;20027;-81
2022/10/17 06:24:15;;;;;;;4.40;2.33;;;17.30;84.70;;;;;;5015872;28;20066;-81
2022/10/17 06:26:41;;;;;;;10.25;2.80;;;17.30;84.70;;;;;;4993370;28;20485;-81
2022/10/17 06:29:07;;;;;;;7.63;2.50;;;17.30;84.80;;;;;;4995214;28;20065;-81
2022/10/17 06:31:32;;;;;;;5.10;2.60;;;17.30;84.70;;;;;;4995877;28;20030;-81
2022/10/17 06:33:58;;;;;;;5.32;2.47;;;17.30;84.70;;;;;;4983431;28;20089;-81
2022/10/17 06:36:24;;;;;;;6.25;2.83;;;17.30;84.70;;;;;;4976684;28;20089;-81
2022/10/17 06:38:49;;;;;;;5.13;2.22;;;17.30;84.70;;;;;;4976368;28;20041;-81
2022/10/17 06:41:17;;;;;;;3.22;2.10;;;17.30;84.80;;;;;;4985427;28;20030;-81
2022/10/17 06:43:45;;;;;;;6.15;2.20;;;17.30;84.70;;;;;;4996005;28;20113;-81
2022/10/17 06:46:15;;;;;;;5.07;2.53;;;17.30;84.70;;;;;;4995937;28;20026;-81
2022/10/17 06:48:41;;;;;;;7.85;2.75;;;17.30;84.70;;;;;;4995241;28;20030;-81
2022/10/17 06:51:10;;;;;;;6.47;2.38;;;17.30;84.80;;;;;;4996498;28;20045;-81
2022/10/17 06:53:37;;;;;;;6.85;2.47;;;17.30;84.80;;;;;;4994752;28;20037;-81
2022/10/17 06:56:04;;;;;;;7.78;2.28;;;17.30;84.80;;;;;;4995006;28;20031;-81
2022/10/17 06:58:32;;;;;;;5.03;2.35;;;17.30;84.80;;;;;;4995286;28;20114;-81
2022/10/17 07:01:03;;;;;;;4.72;2.20;;;17.30;84.80;;;;;;4994279;28;20033;-81
2022/10/17 07:03:30;;;;;;;5.07;2.50;;;17.20;84.80;;;;;;4995266;28;20102;-81
2022/10/17 07:05:56;;;;;;;3.10;2.00;;;17.30;84.80;;;;;;4995971;28;20036;-81
2022/10/17 07:08:22;;;;;;;10.02;2.45;;;17.30;84.80;;;;;;4995144;28;20030;-81
2022/10/17 07:10:48;;;;;;;7.22;2.05;;;17.30;84.80;;;;;;4994259;28;20057;-81
2022/10/17 07:13:14;;;;;;;3.42;2.13;;;17.20;84.80;;;;;;4995570;28;20504;-81
2022/10/17 07:15:40;;;;;;;6.63;1.63;;;17.30;84.60;;;;;;4990855;28;20043;-81
2022/10/17 07:18:06;;;;;;;5.93;2.17;;;17.30;84.60;;;;;;4975934;28;20130;-81
2022/10/17 07:20:32;;;;;;;4.40;1.83;;;17.30;84.60;;;;;;4992176;28;20058;-81
2022/10/17 07:22:58;;;;;;;5.97;2.17;;;17.30;84.60;;;;;;5005861;28;20018;-81
2022/10/17 07:25:24;;;;;;;4.28;1.90;;;17.30;84.70;;;;;;5006870;28;20030;-81
2022/10/17 07:27:50;;;;;;;6.93;2.20;;;17.30;84.50;;;;;;4995349;28;20034;-82
2022/10/17 07:30:16;;;;;;;5.32;2.00;;;17.40;84.50;;;;;;4995003;28;20033;-81
2022/10/17 07:32:43;;;;;;;3.15;1.88;;;17.50;84.10;;;;;;4996997;28;20034;-81
2022/10/17 07:35:09;;;;;;;6.22;2.22;;;17.50;84.00;;;;;;4980479;28;20509;-81
2022/10/17 07:37:35;;;;;;;4.82;2.03;;;17.50;84.20;;;;;;4979703;28;20046;-81
2022/10/17 07:40:01;;;;;;;3.83;2.00;;;17.40;84.20;;;;;;4994801;28;20078;-81
2022/10/17 07:42:27;;;;;;;5.35;1.63;;;17.40;84.10;;;;;;4980333;28;20029;-81
2022/10/17 07:44:53;;;;;;;5.93;1.80;;;17.40;84.30;;;;;;4998693;28;20031;-81
2022/10/17 07:47:19;;;;;;;5.72;1.83;;;17.40;84.30;;;;;;4998856;28;20044;-81
2022/10/17 07:49:45;;;;;;;5.80;1.75;;;17.40;84.40;;;;;;4998849;28;20090;-82
2022/10/17 07:52:12;;;;;;;5.88;1.70;;;17.40;84.40;;;;;;4998608;28;20517;-81
2022/10/17 07:54:38;;;;;;;6.60;1.73;;;17.40;84.50;;;;;;4999133;28;20035;-81
2022/10/17 07:57:04;;;;;;;5.15;1.70;;;17.40;84.30;;;;;;4998687;28;20026;-81
2022/10/17 07:59:31;;;;;;;4.68;2.05;;;17.50;84.10;;;;;;5013118;28;20401;-81
2022/10/17 08:01:58;;;;;;;3.58;1.58;;;17.60;84.00;;;;;;4999061;28;20023;-81
2022/10/17 08:04:24;;;;;;;4.53;2.10;;;17.70;83.80;;;;;;4998683;28;20096;-81
2022/10/17 08:06:50;;;;;;;3.70;1.60;;;17.70;83.60;;;;;;4998350;28;20026;-81
2022/10/17 08:09:16;;;;;;;5.07;1.80;;;17.80;83.40;;;;;;4998037;28;20062;-81
2022/10/17 08:11:44;;;;;;;4.68;1.52;;;17.80;83.20;;;;;;5012827;28;20034;-82
2022/10/17 08:14:11;;;;;;;2.47;1.20;;;17.80;82.90;;;;;;4997924;28;20058;-81
2022/10/17 08:16:37;;;;;;;6.75;1.58;;;17.80;82.90;;;;;;4997951;28;20034;-81
2022/10/17 08:19:03;;;;;;;4.75;1.45;;;17.80;83.00;;;;;;4997846;28;20110;-81
2022/10/17 08:21:29;;;;;;;2.55;1.42;;;17.80;82.90;;;;;;4997330;28;20201;-81
2022/10/17 08:23:55;;;;;;;4.13;1.63;;;17.90;83.10;;;;;;5004851;28;20064;-80
2022/10/17 08:26:21;;;;;;;3.92;1.42;;;17.90;82.90;;;;;;4996713;28;20027;-81
2022/10/17 08:28:47;;;;;;;2.60;1.50;;;17.90;83.00;;;;;;4998203;28;20062;-80
2022/10/17 08:31:18;;;;;;;5.03;1.60;;;17.90;82.90;;;;;;4993015;28;20467;-81
2022/10/17 08:33:44;;;;;;;5.50;1.65;;;18.00;82.80;;;;;;4978769;28;20026;-81
2022/10/17 08:36:13;;;;;;;5.45;1.40;;;18.00;82.80;;;;;;4979096;28;20114;-81
2022/10/17 08:38:38;;;;;;;2.72;1.65;;;18.10;82.70;;;;;;4978733;28;20082;-80
2022/10/17 08:41:14;;;;;;;4.07;1.42;;;18.20;82.60;;;;;;4977293;28;20438;-81
2022/10/17 08:43:42;;;;;;;3.55;1.25;;;18.20;82.50;;;;;;4977620;28;20035;-82
2022/10/17 08:46:09;;;;;;;4.50;1.25;;;18.20;82.40;;;;;;4997351;28;20022;-81
2022/10/17 08:48:46;;;;;;;2.90;0.90;;;18.20;82.60;;;;;;4996338;28;20034;-82
2022/10/17 08:51:27;;;;;;;1.42;0.82;;;18.20;82.50;;;;;;4996726;28;20026;-81
2022/10/17 08:54:01;;;;;;;;;;;18.20;82.50;;;;;;5003375;28;20113;-81
2022/10/17 08:56:37;;;;;;;3.38;1.98;;;18.20;82.40;;;;;;4997255;28;19920;-82
2022/10/17 08:59:09;;;;;;;2.95;1.13;;;18.20;82.10;;;;;;4997742;28;20018;-81
2022/10/17 09:01:56;;;;;;;4.53;1.00;;;18.10;81.90;;;;;;4996675;28;20496;-81
2022/10/17 09:04:47;;;;;;;2.95;0.90;;;18.10;82.10;;;;;;5012517;28;20492;-81
2022/10/17 09:07:16;;;;;;;3.53;1.30;;;18.10;82.30;;;;;;4993394;28;20027;-81
2022/10/17 09:10:11;;;;;;;4.13;1.42;;;18.20;82.20;;;;;;4978686;28;20027;-80
2022/10/17 09:13:01;;;;;;;4.20;1.38;;;18.30;82.10;;;;;;4978277;28;20033;-81
2022/10/17 09:15:40;;;;;;;;;;;18.30;81.90;;;;;;4989934;28;20497;-81
2022/10/17 09:18:15;;;;;;;2.50;0.90;;;18.40;81.80;;;;;;4997121;28;19906;-81
2022/10/17 09:20:52;;;;;;;2.35;1.13;;;18.50;81.10;;;;;;4996668;28;20038;-81
2022/10/17 09:23:25;;;;;;;1.67;0.80;;;18.60;81.10;;;;;;4997220;28;20077;-81
2022/10/17 09:26:00;;;;;;;1.95;0.70;;;18.60;81.10;;;;;;4997478;28;20018;-81
2022/10/17 09:28:31;;;;;;;7.50;1.00;;;18.70;80.80;;;;;;4994990;28;20034;-81
2022/10/17 09:31:09;;;;;;;3.30;1.00;;;18.70;80.80;;;;;;4996968;28;20026;-80
2022/10/17 09:33:44;;;;;;;6.28;1.13;;;18.70;80.90;;;;;;4996149;28;20033;-81
2022/10/17 09:36:17;;;;;;;2.22;0.80;;;18.80;80.80;;;;;;5002376;28;20069;-81
2022/10/17 09:38:55;;;;;;;5.25;1.15;;;18.90;80.20;;;;;;4996905;28;20439;-81
2022/10/17 09:41:26;;;;;;;4.38;1.33;;;18.80;80.00;;;;;;4996248;28;20022;-81
2022/10/17 09:43:55;;;;;;;4.22;0.80;;;19.00;79.90;;;;;;5012197;28;20031;-81
2022/10/17 09:46:37;;;;;;;2.35;1.00;;;18.90;79.50;;;;;;4996869;28;20084;-81
2022/10/17 09:49:11;;;;;;;4.00;0.90;;;19.00;79.30;;;;;;5011835;28;20035;-81
2022/10/17 09:51:38;;;;;;;4.40;1.08;;;19.10;79.20;;;;;;4977468;28;20041;-81
2022/10/17 09:54:18;;;;;;;6.15;0.98;;;19.10;79.00;;;;;;4977279;28;20046;-82
2022/10/17 09:57:04;;;;;;;4.00;0.85;;;19.20;78.60;;;;;;4983686;28;20081;-81
2022/10/17 09:59:35;;;;;;;2.83;0.85;;;19.20;78.90;;;;;;4996128;28;20049;-81
2022/10/17 10:02:17;;;;;;;6.10;1.20;;;19.30;78.80;;;;;;4993592;28;20018;-80
2022/10/17 10:05:05;;;;;;;3.00;0.95;;;19.30;78.80;;;;;;4995073;28;20034;-81
2022/10/17 10:07:34;;;;;;;2.95;0.82;;;19.30;78.60;;;;;;4995090;28;20022;-81
2022/10/17 10:10:02;;;;;;;2.90;0.80;;;19.30;78.50;;;;;;4993984;28;20789;-82
2022/10/17 10:12:31;;;;;;;7.68;1.23;;;19.30;78.40;;;;;;4990827;28;20048;-81
2022/10/17 10:14:57;;;;;;;2.23;0.70;;;19.30;78.70;;;;;;4994508;28;20046;-82
2022/10/17 10:17:27;;;;;;;3.95;1.25;;;19.30;78.60;;;;;;4995148;28;20405;-81
2022/10/17 10:19:53;;;;;;;7.47;1.08;;;19.30;78.70;;;;;;4995587;28;20026;-82
2022/10/17 10:22:22;;;;;;;2.92;0.60;;;19.30;78.60;;;;;;4996278;28;20094;-81
2022/10/17 10:25:10;;;;;;;8.00;1.25;;;19.40;78.30;;;;;;4994378;28;20478;-81
2022/10/17 10:27:38;;;;;;;3.65;0.90;;;19.30;78.30;;;;;;4994307;28;20061;-81
2022/10/17 10:30:04;;;;;;;4.50;1.05;;;19.40;78.30;;;;;;4995978;28;20077;-81
2022/10/17 10:32:35;;;;;;;2.22;0.60;;;19.50;77.60;;;;;;4994497;28;20030;-81
2022/10/17 10:35:07;;;;;;;4.18;0.77;;;19.70;78.10;;;;;;4993423;28;20030;-81
2022/10/17 10:37:39;;;;;;;5.68;1.20;;;19.90;78.20;;;;;;4984657;28;20022;-81
2022/10/17 10:40:17;;;;;;;5.35;0.80;;;19.90;77.80;;;;;;4988363;28;20030;-82
2022/10/17 10:42:47;;;;;;;2.30;0.90;;;20.00;77.20;;;;;;4995499;28;20030;-81
2022/10/17 10:45:21;;;;;;;3.88;1.15;;;20.00;76.90;;;;;;4996177;28;20386;-81
2022/10/17 10:47:54;;;;;;;1.77;0.90;;;20.10;76.80;;;;;;4979790;28;20030;-81
2022/10/17 10:50:27;;;;;;;5.28;0.60;;;20.20;76.70;;;;;;4980844;28;20049;-81
2022/10/17 10:53:06;;;;;;;4.35;1.33;;;20.30;76.50;;;;;;4994068;28;20485;-81
2022/10/17 10:55:39;;;;;;;4.40;0.80;;;20.50;75.90;;;;;;4990188;28;20042;-81
2022/10/17 10:58:22;;;;;;;4.28;0.70;;;20.60;75.60;;;;;;4976484;28;20122;-81
2022/10/17 11:00:49;;;;;;;3.63;0.60;;;20.80;75.50;;;;;;4976578;28;20053;-81
2022/10/17 11:03:39;;;;;;;4.22;0.85;;;20.80;74.80;;;;;;4976290;28;20015;-81
2022/10/17 11:06:18;;;;;;;1.88;0.43;;;20.70;74.80;;;;;;4991715;28;20169;-81
2022/10/17 11:09:08;;;;;;;6.32;0.70;;;20.50;75.20;;;;;;4981022;28;20057;-81
2022/10/17 11:11:41;;;;;;;7.47;0.90;;;20.40;75.40;;;;;;4999157;28;20501;-81
2022/10/17 11:14:35;;;;;;;2.67;1.05;;;20.40;75.30;;;;;;4999648;28;20551;-81
2022/10/17 11:17:33;;;;;;;2.55;0.50;;;20.30;75.50;;;;;;4998395;28;20026;-82
2022/10/17 11:20:08;;;;;;;5.70;0.90;;;20.30;75.60;;;;;;4980311;28;20457;-79
2022/10/17 11:22:48;;;;;;;3.42;0.65;;;20.20;75.70;;;;;;4993643;28;20473;-80
2022/10/17 11:25:32;;;;;;;;;;;20.20;75.90;;;;;;5013511;28;20030;-84
2022/10/17 11:27:58;;;;;;;1.90;0.50;;;20.10;76.20;;;;;;4998327;28;19917;-80
2022/10/17 11:30:27;;;;;;;2.42;0.57;;;20.10;76.30;;;;;;4999032;28;20541;-81
2022/10/17 11:32:58;;;;;;;3.37;1.20;;;20.10;76.50;;;;;;4998773;28;20022;-81
2022/10/17 11:35:35;;;;;;;3.72;0.90;;;20.20;76.50;;;;;;4999387;28;20106;-81
2022/10/17 11:38:01;;;;;;;2.75;0.95;;;20.40;76.20;;;;;;5014361;28;20034;-80
2022/10/17 11:40:31;;;;;;;2.58;0.63;;;20.50;76.10;;;;;;4998525;28;20396;-81
2022/10/17 11:43:11;;;;;;;5.00;0.70;;;20.80;75.80;;;;;;4999206;28;20026;-81
2022/10/17 11:45:43;;;;;;;3.28;0.75;;;20.80;74.60;;;;;;4998593;28;20034;-82
2022/10/17 11:48:27;;;;;;;1.85;0.90;;;20.90;74.80;;;;;;4998979;28;20323;-81
2022/10/17 11:51:09;;;;;;;3.47;0.85;;;20.90;74.30;;;;;;4979793;28;20413;-81
2022/10/17 11:54:03;;;;;;;2.63;0.80;;;20.90;74.70;;;;;;4988228;28;20508;-81
2022/10/17 11:56:47;;;;;;;3.50;0.82;;;20.80;74.50;;;;;;4979557;28;20023;-82
2022/10/17 11:59:58;;;;;;;4.35;1.00;;;20.80;74.50;;;;;;4978472;28;20031;-82
2022/10/17 12:02:44;;;;;;;2.53;0.88;;;20.70;74.30;;;;;;4988462;28;20101;-81
2022/10/17 12:05:44;;;;;;;4.03;1.10;;;20.70;74.40;;;;;;4979014;28;20089;-80
2022/10/17 12:08:19;;;;;;;4.38;0.70;;;20.60;74.40;;;;;;4994950;28;20037;-82
2022/10/17 12:11:13;;;;;;;3.22;1.05;;;20.60;74.40;;;;;;4997966;28;20519;-81
2022/10/17 12:13:40;;;;;;;3.15;0.98;;;20.60;74.30;;;;;;4997453;28;20054;-81
2022/10/17 12:16:18;;;;;;;2.50;0.80;;;20.60;74.50;;;;;;4998536;28;20401;-81
2022/10/17 12:18:45;;;;;;;1.83;0.68;;;20.60;74.80;;;;;;4997372;28;20397;-81
2022/10/17 12:21:11;;;;;;;2.22;0.80;;;20.60;74.60;;;;;;4998516;28;20037;-81
2022/10/17 12:23:40;;;;;;;2.47;0.93;;;20.70;75.20;;;;;;5013512;28;20022;-81
2022/10/17 12:26:09;;;;;;;3.95;0.70;;;20.70;74.90;;;;;;5012039;28;20092;-81
2022/10/17 12:28:42;;;;;;;4.68;0.98;;;20.80;74.70;;;;;;4998022;28;20551;-81
2022/10/17 12:31:30;;;;;;;1.85;0.70;;;20.80;74.60;;;;;;4998362;28;20374;-80
2022/10/17 12:33:58;;;;;;;3.03;0.85;;;20.90;74.30;;;;;;4997520;28;20112;-81
2022/10/17 12:36:27;;;;;;;0.85;0.55;;;20.90;74.00;;;;;;4993540;28;20034;-80
2022/10/17 12:39:01;;;;;;;3.63;1.00;;;20.90;74.30;;;;;;4977279;28;20023;-80
2022/10/17 12:41:39;;;;;;;2.38;0.60;;;20.90;74.00;;;;;;4987323;28;20038;-80
2022/10/17 12:44:14;;;;;;;1.52;0.70;;;20.90;73.90;;;;;;4978354;28;20027;-80
2022/10/17 12:47:24;;;;;;;1.40;0.40;;;20.90;74.20;;;;;;4995331;28;20141;-80
2022/10/17 12:49:50;;;;;;;2.38;0.73;;;20.90;74.10;;;;;;4997876;28;20158;-83
2022/10/17 12:52:27;;;;;;;3.67;0.57;;;20.90;74.10;;;;;;4997766;28;20038;-82
2022/10/17 12:55:13;;;;;;;3.28;0.73;;;20.90;73.90;;;;;;4997001;28;20035;-80
2022/10/17 12:57:55;;;;;;;1.75;0.70;;;21.00;73.70;;;;;;4996538;28;20030;-80
2022/10/17 13:00:48;;;;;;;2.25;0.80;;;21.00;73.40;;;;;;4984600;28;20030;-80
2022/10/17 13:03:29;;;;;;;2.30;0.60;;;21.00;73.80;;;;;;4977848;28;20110;-80
2022/10/17 13:06:05;;;;;;;6.82;1.42;;;21.00;73.90;;;;;;4978067;28;20406;-80